Puunene, HI

9:21 AM HST on April 18, 2015 (GMT -1000)
Up Country Maui | | Change Station
CLOSE
Current Station
Personal Weather Station
Location: Makawao, HI
Elevation: 1562 ft
Nearby Weather Stations

Elev 1562 ft 20.86 °N, 156.32 °W | Updated 1 minute ago

Clear
Clear
74.7 °F
Feels Like 77 °F
N
9.0
Wind Variable Wind from East
Gusts 16.0 mph

Today
High -- | Low -- °F
--% Chance of Precip.
Yesterday
High -- | Low -- °F
Precip. -- in
6:04 AM 6:45 PM
New Moon, 0% visible
Pressure 30.12 in
Visibility 10.0 miles
Clouds Clear
Heat Index 77 °F
Dew Point 64 °F
Humidity 69%
Rainfall 0.00 in
Snow Depth Not available.
UV 4.7 out of 12
Pollen Not available.
Air Quality Not available.
Flu Activity Regional
METAR PHNY 181858Z AUTO 01005KT 10SM CLR 23/16 A3017 RMK AO2 SLP198 T02330161

More Conditions Fewer Conditions

Pressure 30.12 in
Visibility 10.0 miles
Clouds Clear
Heat Index 77 °F
Dew Point 64 °F
Humidity 69%
Rainfall 0.00 in
Snow Depth Not available.
UV 4.7 out of 12
Pollen Not available.
Air Quality Not available.
Flu Activity Regional
METAR PHNY 181858Z AUTO 01005KT 10SM CLR 23/16 A3017 RMK AO2 SLP198 T02330161

More Conditions Fewer Conditions

10-Day Weather Forecast

Almanac

Astronomy

Apr. 18, 2015 Rise Set
Actual Time
Civil Twilight
Nautical Twilight
Astronomical Twilight
Moon
Length of Visible Light
Length of Day
Tomorrow will be .
, % of the Moon is Illuminated

Today's Extremes

State Highs State Lows

Community

WunderPhotos

Upload Photos

1,814,501 photos uploaded!

WunderBlogs® & News

Nearby

Air Quality

  Air Quality AQ Index Pollutant
Not available.

Snow Depth

Station Depth Elevation

Earthquake Activity

City Distance Mag. Time & Date
Minimum magnitude displayed is 2.5.

Coastal Water Temperatures

Place Temperature

Stations

Nearby Weather Stations

Station Location Temp. Windchill Dew Point Humidity Wind Precip. Elev Updated Type